Pagina principale
METAR-TAF:

METAR-TAF

Aeroporti :

Dnipropetrovs'k, Ucraina

latitudine: 48-21-26N, longitudine: 035-06-02E, altezza: 147 m

Osservazione

Il bollettino è stato emesso 18 minuti fa, alle 18:00 UTC
Vento 6 kt da nord-est
Temperature 21°C
Umidità 56%
Pressione 1020 hPa
Visibilità 10 km o più
nessuna nube inferiore a 1500 m e nessun cumulonembo

METAR: UKDD 101800Z 05003MPS CAVOK 21/12 Q1020 R08/090070 NOSIG

Ora: 21:18 (18:18 UTC)

Previsione

Il bollettino è stato emesso 1 ora e 16 minuti fa, alle 17:02 UTC
Previsione valida dal 10 alle 18 UTC al 11 alle 18 UTC
Vento 2 kt da direzioni variabili
Visibilità 10 km o più
nessuna nube inferiore a 1500 m e nessun cumulonembo
Evoluzione graduale
dal 11 alle 06 UTC al 11 alle 08 UTC
Vento 10 kt da est

TAF: UKDD 101702Z 1018/1118 VRB01MPS CAVOK TX30/1112Z TN17/1102Z BECMG 1106/1108 08005MPS

Osservazioni e previsioni meteorologiche di più di 4000 aeroporti (messaggi METAR e TAF).

Le stazioni disponibili sono rappresentate dai dischi gialli e rossi sulla carta.

Puntare il mouse per vedere il nome della stazione.

Clicca sopra per visualizzare le osservazioni e previsioni meteorologiche.

Per cambiare la mappa : fare clic sui pulsanti verdi con una croce nera per ingrandire, il pulsante verde con un trattino per diminuire, o sulla freccia verde per le mappe adiacenti.


METAR-TAF: